createdAt,value
2022-08-26T00:01:29.913Z,8.80
2022-08-26T00:03:59.056Z,9.00
2022-08-26T00:06:27.896Z,8.73
2022-08-26T00:08:56.770Z,9.20
2022-08-26T00:11:28.016Z,8.27
2022-08-26T00:13:57.578Z,8.48
2022-08-26T00:16:28.519Z,8.57
2022-08-26T00:18:56.878Z,7.57
2022-08-26T00:21:25.125Z,8.75
2022-08-26T00:23:53.574Z,9.73
2022-08-26T00:26:21.965Z,8.25
2022-08-26T00:28:50.299Z,10.32
2022-08-26T00:31:19.473Z,9.15
2022-08-26T00:33:47.784Z,9.40
2022-08-26T00:36:21.542Z,8.88
2022-08-26T00:38:50.188Z,8.90
2022-08-26T00:41:19.766Z,8.13
2022-08-26T00:43:48.238Z,9.25
2022-08-26T00:46:23.829Z,8.93
2022-08-26T00:48:58.545Z,9.75
2022-08-26T00:51:29.834Z,9.18
2022-08-26T00:54:04.067Z,8.85
2022-08-26T00:56:43.639Z,8.13
2022-08-26T00:59:13.669Z,8.95
2022-08-26T01:01:44.190Z,8.75
2022-08-26T01:04:20.515Z,7.90
2022-08-26T01:06:52.991Z,7.90
2022-08-26T01:09:23.256Z,9.77
2022-08-26T01:11:55.599Z,9.38
2022-08-26T01:14:26.779Z,8.68
2022-08-26T01:16:55.147Z,8.70
2022-08-26T01:19:30.344Z,8.40
2022-08-26T01:22:04.982Z,7.70
2022-08-26T01:24:33.451Z,8.57
2022-08-26T01:27:05.381Z,8.32
2022-08-26T01:29:36.375Z,8.45
2022-08-26T01:32:08.872Z,8.85
2022-08-26T01:34:39.971Z,9.32
2022-08-26T01:37:13.639Z,8.82
2022-08-26T01:39:48.003Z,9.00
2022-08-26T01:42:19.743Z,8.43
2022-08-26T01:47:26.587Z,8.82
2022-08-26T01:49:56.644Z,8.57
2022-08-26T01:52:28.449Z,9.20
2022-08-26T01:54:58.957Z,8.20
2022-08-26T01:57:29.239Z,8.32
2022-08-26T02:00:01.259Z,8.23
2022-08-26T02:02:29.984Z,8.35
2022-08-26T02:05:02.055Z,8.15
2022-08-26T02:07:32.000Z,8.18
2022-08-26T02:12:30.910Z,8.68
2022-08-26T02:15:02.177Z,8.82
2022-08-26T02:17:39.850Z,9.18
2022-08-26T02:20:13.068Z,8.65
2022-08-26T02:22:45.023Z,8.48
2022-08-26T02:25:25.721Z,8.40
2022-08-26T02:27:56.738Z,8.33
2022-08-26T02:30:29.249Z,8.30
2022-08-26T02:33:03.983Z,8.02
2022-08-26T02:35:34.781Z,7.93
2022-08-26T02:38:10.005Z,8.85
2022-08-26T02:40:41.649Z,8.15
2022-08-26T02:45:40.314Z,8.60
2022-08-26T02:48:13.318Z,8.70
2022-08-26T02:50:42.038Z,8.65
2022-08-26T02:53:12.264Z,7.97
2022-08-26T02:55:42.334Z,8.18
2022-08-26T02:58:11.460Z,8.00
2022-08-26T03:00:40.379Z,8.18
2022-08-26T03:05:51.890Z,8.32
2022-08-26T03:08:20.142Z,8.50
2022-08-26T03:10:48.858Z,8.15
2022-08-26T03:13:18.724Z,7.78
2022-08-26T03:15:47.710Z,8.77
2022-08-26T03:18:16.331Z,8.10
2022-08-26T03:20:45.593Z,7.63
2022-08-26T03:23:13.914Z,7.68
2022-08-26T03:25:42.647Z,7.22
2022-08-26T03:28:10.927Z,7.88
2022-08-26T03:30:45.013Z,7.85
2022-08-26T03:33:15.220Z,7.90
2022-08-26T03:35:45.382Z,7.40
2022-08-26T03:38:14.679Z,7.53
2022-08-26T03:40:43.735Z,7.90
2022-08-26T03:43:12.998Z,8.35
2022-08-26T03:45:42.030Z,8.30
2022-08-26T03:48:11.575Z,7.50
2022-08-26T03:50:40.643Z,8.10
2022-08-26T03:53:12.965Z,7.32
2022-08-26T03:55:43.233Z,9.13
2022-08-26T03:58:11.709Z,8.82
2022-08-26T04:00:40.158Z,8.43
2022-08-26T04:03:10.071Z,10.38
2022-08-26T04:05:39.035Z,9.10
2022-08-26T04:08:07.427Z,8.68
2022-08-26T04:10:38.437Z,8.32
2022-08-26T04:13:06.811Z,9.02
2022-08-26T04:15:35.245Z,8.10
2022-08-26T04:18:03.860Z,8.07
2022-08-26T04:20:32.235Z,8.07
2022-08-26T04:23:00.748Z,8.27
2022-08-26T04:25:29.260Z,8.35
2022-08-26T04:27:57.541Z,8.43
2022-08-26T04:30:25.928Z,8.48
2022-08-26T04:32:54.646Z,8.35
2022-08-26T04:35:26.007Z,9.40
2022-08-26T04:37:55.562Z,7.63
2022-08-26T04:40:24.538Z,8.05
2022-08-26T04:42:54.683Z,7.80
2022-08-26T04:45:24.212Z,7.85
2022-08-26T04:47:56.940Z,7.60
2022-08-26T04:50:26.659Z,7.43
2022-08-26T04:52:55.769Z,7.32
2022-08-26T04:55:38.232Z,8.13
2022-08-26T04:58:10.986Z,7.45
2022-08-26T05:00:39.315Z,6.95
2022-08-26T05:03:10.409Z,7.60
2022-08-26T05:05:41.902Z,7.38
2022-08-26T05:08:11.789Z,7.10
2022-08-26T05:10:42.606Z,6.93
2022-08-26T05:13:15.611Z,7.70
2022-08-26T05:15:45.481Z,7.35
2022-08-26T05:18:16.496Z,7.18
2022-08-26T05:20:47.533Z,7.70
2022-08-26T05:23:17.714Z,6.97
2022-08-26T05:25:47.910Z,7.20
2022-08-26T05:28:19.038Z,7.25
2022-08-26T05:30:49.194Z,7.38
2022-08-26T05:33:19.374Z,7.22
2022-08-26T05:35:48.089Z,7.32
2022-08-26T05:38:20.034Z,6.85
2022-08-26T05:40:52.905Z,7.13
2022-08-26T05:43:21.494Z,6.93
2022-08-26T05:45:50.997Z,7.28
2022-08-26T05:48:24.118Z,6.95
2022-08-26T05:50:54.161Z,6.47
2022-08-26T05:53:23.875Z,7.20
2022-08-26T05:55:56.739Z,7.03
2022-08-26T05:58:27.429Z,7.32
2022-08-26T06:01:03.141Z,6.57
2022-08-26T06:03:35.991Z,6.82
2022-08-26T06:06:06.592Z,6.82
2022-08-26T06:08:36.345Z,7.13
2022-08-26T06:11:08.053Z,6.90
2022-08-26T06:13:47.161Z,6.45
2022-08-26T06:16:18.821Z,7.00
2022-08-26T06:18:49.019Z,7.17
2022-08-26T06:21:21.748Z,6.82
2022-08-26T06:24:15.540Z,6.65
2022-08-26T06:26:50.613Z,6.53
2022-08-26T06:29:24.294Z,6.57
2022-08-26T06:31:56.123Z,6.63
2022-08-26T06:34:29.751Z,6.82
2022-08-26T06:37:02.530Z,6.30
2022-08-26T06:39:31.964Z,6.97
2022-08-26T06:42:01.180Z,6.45
2022-08-26T06:44:31.074Z,6.45
2022-08-26T06:47:00.889Z,6.50
2022-08-26T06:49:29.260Z,6.68
2022-08-26T06:52:00.546Z,6.93
2022-08-26T06:54:31.918Z,6.32
2022-08-26T06:57:01.220Z,6.65
2022-08-26T06:59:31.327Z,6.55
2022-08-26T07:01:59.868Z,6.50
2022-08-26T07:04:28.940Z,6.57
2022-08-26T07:06:58.107Z,6.47
2022-08-26T07:09:30.405Z,6.72
2022-08-26T07:11:59.555Z,6.57
2022-08-26T07:14:27.916Z,6.60
2022-08-26T07:16:56.289Z,6.45
2022-08-26T07:19:29.939Z,6.13
2022-08-26T07:22:03.332Z,6.20
2022-08-26T07:24:35.149Z,6.10
2022-08-26T07:27:08.591Z,6.07
2022-08-26T07:29:39.601Z,6.32
2022-08-26T07:32:10.102Z,6.30
2022-08-26T07:34:45.469Z,5.95
2022-08-26T07:37:14.258Z,6.70
2022-08-26T07:39:44.494Z,6.40
2022-08-26T07:42:15.942Z,6.55
2022-08-26T07:44:47.324Z,5.75
2022-08-26T07:47:25.040Z,6.45
2022-08-26T07:49:57.657Z,6.57
2022-08-26T07:52:28.873Z,6.05
2022-08-26T07:54:59.348Z,5.70
2022-08-26T07:57:29.163Z,6.00
2022-08-26T07:59:58.161Z,5.63
2022-08-26T08:02:28.613Z,6.03
2022-08-26T08:04:58.506Z,5.47
2022-08-26T08:07:38.704Z,5.90
2022-08-26T08:10:18.173Z,6.10
2022-08-26T08:12:47.897Z,5.88
2022-08-26T08:15:18.428Z,5.97
2022-08-26T08:17:50.506Z,6.32
2022-08-26T08:22:50.166Z,5.88
2022-08-26T08:25:21.734Z,6.03
2022-08-26T08:27:50.668Z,5.93
2022-08-26T08:30:22.825Z,6.35
2022-08-26T08:32:52.537Z,5.90
2022-08-26T08:35:22.734Z,5.80
2022-08-26T08:37:54.461Z,6.10
2022-08-26T08:40:26.306Z,5.82
2022-08-26T08:43:06.341Z,5.55
2022-08-26T08:45:38.612Z,5.60
2022-08-26T08:48:27.785Z,6.18
2022-08-26T08:51:06.515Z,5.57
2022-08-26T08:53:39.149Z,5.93
2022-08-26T08:56:36.815Z,5.78
2022-08-26T08:59:21.698Z,5.40
2022-08-26T09:02:00.031Z,5.80
2022-08-26T09:05:02.893Z,6.30
2022-08-26T09:07:40.069Z,5.65
2022-08-26T09:10:23.393Z,5.80
2022-08-26T09:12:53.102Z,5.80
2022-08-26T09:15:40.893Z,5.45
2022-08-26T09:18:15.727Z,5.90
2022-08-26T09:20:55.593Z,6.00
2022-08-26T09:23:25.163Z,5.88
2022-08-26T09:25:57.232Z,5.70
2022-08-26T09:28:28.191Z,6.30
2022-08-26T09:31:19.754Z,5.80
2022-08-26T09:33:49.086Z,5.78
2022-08-26T09:36:41.262Z,5.35
2022-08-26T09:39:38.145Z,5.60
2022-08-26T09:42:09.540Z,5.80
2022-08-26T09:47:32.814Z,5.57
2022-08-26T09:50:28.801Z,5.30
2022-08-26T09:53:14.546Z,6.38
2022-08-26T09:55:49.021Z,5.32
2022-08-26T09:58:34.012Z,5.82
2022-08-26T10:01:27.776Z,5.70
2022-08-26T10:04:14.066Z,5.82
2022-08-26T10:06:58.814Z,5.90
2022-08-26T10:09:29.946Z,5.70
2022-08-26T10:12:04.971Z,5.80
2022-08-26T10:17:27.271Z,5.70
2022-08-26T10:20:05.653Z,5.65
2022-08-26T10:22:59.169Z,5.60
2022-08-26T10:25:34.231Z,5.97
2022-08-26T10:28:11.084Z,5.85
2022-08-26T10:30:59.787Z,5.60
2022-08-26T10:33:28.196Z,6.40
2022-08-26T10:37:14.655Z,7.47
2022-08-26T10:39:58.755Z,7.38
2022-08-26T10:42:42.698Z,7.57
2022-08-26T10:45:16.121Z,7.43
2022-08-26T10:47:57.964Z,6.80
2022-08-26T10:50:48.200Z,7.65
2022-08-26T10:53:39.254Z,6.68
2022-08-26T10:56:51.563Z,6.20
2022-08-26T10:59:38.713Z,6.72
2022-08-26T11:02:29.639Z,6.78
2022-08-26T11:05:03.613Z,6.72
2022-08-26T11:07:36.359Z,6.20
2022-08-26T11:10:14.503Z,6.35
2022-08-26T11:12:45.490Z,6.28
2022-08-26T11:15:40.376Z,6.28
2022-08-26T11:18:57.769Z,6.50
2022-08-26T11:21:50.978Z,6.68
2022-08-26T11:24:58.993Z,6.60
2022-08-26T11:27:36.795Z,6.25
2022-08-26T11:30:27.226Z,6.45
2022-08-26T11:32:58.329Z,6.75
2022-08-26T11:35:26.952Z,6.22
2022-08-26T11:38:22.345Z,6.45
2022-08-26T11:41:06.385Z,6.57
2022-08-26T11:43:37.853Z,6.72
2022-08-26T11:46:10.627Z,6.88
2022-08-26T11:48:42.167Z,6.50
2022-08-26T11:53:47.174Z,6.18
2022-08-26T11:56:31.630Z,6.22
2022-08-26T11:59:03.982Z,5.40
2022-08-26T12:01:36.203Z,6.05
2022-08-26T12:04:07.793Z,6.18
2022-08-26T12:06:45.273Z,6.40
2022-08-26T12:09:26.769Z,5.80
2022-08-26T12:12:15.371Z,5.82
2022-08-26T12:14:43.932Z,5.70
2022-08-26T12:17:16.275Z,5.35
2022-08-26T12:19:45.556Z,5.72
2022-08-26T12:22:25.178Z,5.70
2022-08-26T12:24:57.161Z,5.80
2022-08-26T12:27:31.555Z,5.65
2022-08-26T12:30:19.211Z,5.70
2022-08-26T12:32:58.056Z,6.32
2022-08-26T12:35:29.433Z,5.40
2022-08-26T12:37:58.712Z,5.82
2022-08-26T12:40:31.062Z,5.88
2022-08-26T12:45:43.201Z,5.63
2022-08-26T12:48:33.554Z,5.50
2022-08-26T12:51:03.085Z,5.63
2022-08-26T12:53:35.687Z,5.80
2022-08-26T12:56:19.674Z,5.72
2022-08-26T12:59:08.837Z,5.57
2022-08-26T13:01:44.611Z,5.53
2022-08-26T13:04:37.212Z,5.70
2022-08-26T13:07:26.397Z,5.43
2022-08-26T13:09:58.047Z,5.55
2022-08-26T13:12:33.610Z,5.43
2022-08-26T13:15:03.818Z,4.97
2022-08-26T13:17:32.726Z,5.40
2022-08-26T13:20:04.228Z,5.28
2022-08-26T13:22:33.803Z,5.38
2022-08-26T13:25:02.267Z,5.65
2022-08-26T13:27:31.458Z,5.20
2022-08-26T13:30:01.646Z,5.13
2022-08-26T13:32:31.861Z,5.07
2022-08-26T13:35:00.687Z,5.20
2022-08-26T13:37:34.965Z,5.05
2022-08-26T13:40:07.883Z,5.18
2022-08-26T13:42:36.375Z,5.45
2022-08-26T13:45:05.338Z,4.60
2022-08-26T13:47:33.797Z,5.60
2022-08-26T13:50:02.377Z,4.90
2022-08-26T13:52:31.258Z,5.13
2022-08-26T13:55:00.750Z,4.70
2022-08-26T13:57:30.394Z,4.35
2022-08-26T14:00:01.915Z,5.18
2022-08-26T14:02:37.958Z,4.90
2022-08-26T14:05:07.856Z,4.70
2022-08-26T14:07:36.931Z,4.90
2022-08-26T14:10:06.058Z,4.70
2022-08-26T14:12:34.810Z,4.93
2022-08-26T14:15:32.168Z,4.55
2022-08-26T14:18:08.744Z,4.53
2022-08-26T14:20:38.530Z,4.28
2022-08-26T14:23:14.643Z,4.80
2022-08-26T14:26:19.050Z,4.22
2022-08-26T14:29:01.726Z,4.55
2022-08-26T14:31:31.921Z,4.65
2022-08-26T14:34:04.397Z,4.00
2022-08-26T14:36:33.284Z,3.97
2022-08-26T14:39:08.095Z,4.38
2022-08-26T14:41:45.396Z,4.30
2022-08-26T14:44:28.008Z,4.25
2022-08-26T14:46:57.258Z,4.45
2022-08-26T14:49:27.459Z,4.30
2022-08-26T14:51:56.711Z,4.20
2022-08-26T14:54:25.444Z,4.38
2022-08-26T14:56:58.706Z,4.63
2022-08-26T14:59:39.747Z,4.63
2022-08-26T15:02:13.746Z,4.32
2022-08-26T15:04:46.501Z,4.10
2022-08-26T15:07:15.315Z,4.50
2022-08-26T15:09:46.931Z,4.40
2022-08-26T15:12:15.628Z,4.40
2022-08-26T15:14:43.996Z,4.13
2022-08-26T15:17:26.522Z,4.20
2022-08-26T15:19:58.111Z,4.40
2022-08-26T15:27:27.168Z,4.47
2022-08-26T15:30:02.712Z,3.90
2022-08-26T15:32:31.181Z,4.13
2022-08-26T15:34:59.920Z,4.82
2022-08-26T15:37:28.377Z,5.18
2022-08-26T15:39:57.262Z,4.53
2022-08-26T15:42:25.608Z,4.97
2022-08-26T15:44:55.963Z,4.68
2022-08-26T15:47:32.280Z,4.88
2022-08-26T15:50:16.616Z,5.53
2022-08-26T15:53:09.605Z,5.15
2022-08-26T15:55:38.056Z,5.35
2022-08-26T15:58:06.852Z,5.32
2022-08-26T16:00:36.145Z,5.72
2022-08-26T16:03:05.712Z,5.82
2022-08-26T16:05:38.977Z,5.13
2022-08-26T16:08:08.672Z,5.40
2022-08-26T16:10:45.451Z,5.43
2022-08-26T16:13:16.406Z,5.30
2022-08-26T16:15:46.464Z,5.28
2022-08-26T16:18:16.347Z,5.72
2022-08-26T16:21:10.279Z,5.32
2022-08-26T16:23:39.427Z,5.65
2022-08-26T16:26:12.853Z,6.13
2022-08-26T16:28:41.521Z,5.35
2022-08-26T16:31:12.682Z,5.43
2022-08-26T16:33:41.022Z,5.03
2022-08-26T16:36:11.251Z,5.53
2022-08-26T16:38:41.434Z,5.40
2022-08-26T16:41:09.889Z,5.45
2022-08-26T16:43:38.633Z,5.40
2022-08-26T16:46:07.470Z,5.30
2022-08-26T16:48:36.113Z,5.22
2022-08-26T16:51:04.744Z,5.35
2022-08-26T16:53:33.732Z,5.28
2022-08-26T16:56:02.320Z,5.68
2022-08-26T16:58:31.833Z,5.28
2022-08-26T17:01:00.188Z,5.30
2022-08-26T17:03:28.747Z,5.43
2022-08-26T17:05:57.152Z,5.32
2022-08-26T17:08:28.746Z,5.28
2022-08-26T17:11:00.684Z,5.38
2022-08-26T17:13:35.846Z,5.32
2022-08-26T17:16:07.574Z,5.22
2022-08-26T17:18:37.460Z,5.93
2022-08-26T17:21:10.164Z,5.20
2022-08-26T17:23:41.123Z,5.80
2022-08-26T17:26:12.059Z,5.57
2022-08-26T17:28:40.581Z,5.30
2022-08-26T17:31:11.060Z,5.40
2022-08-26T17:33:40.379Z,5.10
2022-08-26T17:36:09.442Z,5.40
2022-08-26T17:38:38.402Z,5.30
2022-08-26T17:41:13.752Z,5.20
2022-08-26T17:43:42.306Z,5.15
2022-08-26T17:46:12.848Z,5.28
2022-08-26T17:48:42.058Z,5.53
2022-08-26T17:51:16.777Z,5.38
2022-08-26T17:53:46.053Z,5.10
2022-08-26T17:56:16.945Z,5.70
2022-08-26T17:58:51.086Z,5.60
2022-08-26T18:01:21.990Z,5.70
2022-08-26T18:03:50.535Z,5.50
2022-08-26T18:06:20.867Z,5.30
2022-08-26T18:08:49.411Z,5.30
2022-08-26T18:11:20.757Z,4.88
2022-08-26T18:16:31.999Z,6.72
2022-08-26T18:19:00.502Z,7.78
2022-08-26T18:21:29.476Z,9.90
2022-08-26T18:23:57.891Z,11.50
2022-08-26T18:26:32.373Z,11.80
2022-08-26T18:29:03.966Z,11.70
2022-08-26T18:31:35.223Z,11.60
2022-08-26T18:34:04.208Z,12.43
2022-08-26T18:36:36.015Z,12.65
2022-08-26T18:39:07.236Z,12.40
2022-08-26T18:41:43.642Z,12.37
2022-08-26T18:44:14.539Z,12.82
2022-08-26T18:46:44.376Z,13.00
2022-08-26T18:49:17.249Z,13.68
2022-08-26T18:51:46.854Z,13.27
2022-08-26T18:54:15.375Z,13.93
2022-08-26T18:56:44.060Z,13.50
2022-08-26T18:59:13.079Z,14.80
2022-08-26T19:01:42.774Z,14.90
2022-08-26T19:04:14.736Z,14.70
2022-08-26T19:06:47.953Z,12.30
2022-08-26T19:09:18.042Z,15.00
2022-08-26T19:11:47.105Z,17.33
2022-08-26T19:14:18.869Z,16.65
2022-08-26T19:16:50.862Z,17.42
2022-08-26T19:21:48.955Z,16.85
2022-08-26T19:24:18.892Z,17.23
2022-08-26T19:26:59.117Z,16.77
2022-08-26T19:29:32.070Z,15.57
2022-08-26T19:32:02.154Z,16.77
2022-08-26T19:34:30.974Z,16.17
2022-08-26T19:36:59.294Z,17.63
2022-08-26T19:39:28.066Z,16.70
2022-08-26T19:41:56.805Z,15.35
2022-08-26T19:44:43.571Z,16.35
2022-08-26T19:47:15.716Z,16.35
2022-08-26T19:49:44.329Z,19.35
2022-08-26T19:52:13.377Z,19.25
2022-08-26T19:54:41.952Z,19.17
2022-08-26T19:57:11.279Z,20.63
2022-08-26T19:59:41.117Z,18.60
2022-08-26T20:02:11.108Z,19.20
2022-08-26T20:04:39.962Z,18.90
2022-08-26T20:07:09.253Z,18.60
2022-08-26T20:09:38.470Z,18.15
2022-08-26T20:12:07.550Z,17.60
2022-08-26T20:14:36.390Z,16.35
2022-08-26T20:17:06.064Z,16.92
2022-08-26T20:19:56.120Z,16.42
2022-08-26T20:22:29.389Z,15.13
2022-08-26T20:27:52.935Z,15.50
2022-08-26T20:30:21.425Z,14.85
2022-08-26T20:32:49.802Z,15.23
2022-08-26T20:35:26.942Z,15.80
2022-08-26T20:38:04.183Z,16.67
2022-08-26T20:40:33.700Z,16.33
2022-08-26T20:43:02.115Z,16.15
2022-08-26T20:45:30.576Z,17.52
2022-08-26T20:47:59.181Z,18.80
2022-08-26T20:50:27.770Z,17.35
2022-08-26T20:53:10.692Z,15.68
2022-08-26T20:55:39.803Z,14.90
2022-08-26T20:58:08.578Z,20.70
2022-08-26T21:00:38.644Z,19.73
2022-08-26T21:03:07.541Z,19.38
2022-08-26T21:05:36.414Z,20.77
2022-08-26T21:08:04.932Z,21.77
2022-08-26T21:10:33.754Z,19.08
2022-08-26T21:13:02.603Z,19.52
2022-08-26T21:15:32.041Z,19.10
2022-08-26T21:18:01.345Z,16.92
2022-08-26T21:20:32.946Z,19.45
2022-08-26T21:23:06.068Z,21.30
2022-08-26T21:25:34.593Z,18.00
2022-08-26T21:28:03.367Z,17.35
2022-08-26T21:30:31.827Z,16.27
2022-08-26T21:33:00.374Z,14.75
2022-08-26T21:35:28.827Z,15.68
2022-08-26T21:37:57.136Z,15.15
2022-08-26T21:40:25.764Z,16.55
2022-08-26T21:42:54.387Z,19.05
2022-08-26T21:45:23.018Z,18.92
2022-08-26T21:47:51.713Z,17.50
2022-08-26T21:50:20.114Z,17.67
2022-08-26T21:52:48.513Z,16.73
2022-08-26T21:55:17.709Z,16.02
2022-08-26T21:57:46.094Z,17.30
2022-08-26T22:00:16.731Z,17.13
2022-08-26T22:02:45.632Z,18.48
2022-08-26T22:05:14.134Z,17.73
2022-08-26T22:07:42.475Z,16.60
2022-08-26T22:10:11.171Z,15.93
2022-08-26T22:12:39.821Z,15.68
2022-08-26T22:15:08.911Z,15.73
2022-08-26T22:17:38.036Z,15.35
2022-08-26T22:20:07.571Z,14.60
2022-08-26T22:22:46.008Z,14.30
2022-08-26T22:25:14.445Z,14.13
2022-08-26T22:27:43.241Z,14.45
2022-08-26T22:30:12.137Z,13.60
2022-08-26T22:32:47.234Z,14.57
2022-08-26T22:35:28.115Z,15.10
2022-08-26T22:37:58.215Z,14.60
2022-08-26T22:40:26.932Z,13.85
2022-08-26T22:42:55.665Z,15.65
2022-08-26T22:45:27.645Z,15.02
2022-08-26T22:47:56.113Z,16.73
2022-08-26T22:50:25.540Z,16.02
2022-08-26T22:52:54.022Z,14.27
2022-08-26T22:55:22.436Z,14.75
2022-08-26T22:57:51.062Z,14.45
2022-08-26T23:00:32.222Z,14.40
2022-08-26T23:03:02.277Z,15.10
2022-08-26T23:05:31.975Z,14.10
2022-08-26T23:08:03.190Z,13.55
2022-08-26T23:10:34.569Z,13.77
2022-08-26T23:13:05.204Z,13.65
2022-08-26T23:15:34.314Z,14.30
2022-08-26T23:18:03.729Z,14.20
2022-08-26T23:20:32.779Z,12.18
2022-08-26T23:23:01.546Z,13.15
2022-08-26T23:25:32.433Z,13.13
2022-08-26T23:28:01.946Z,12.93
2022-08-26T23:30:32.730Z,13.25
2022-08-26T23:33:01.353Z,13.60
2022-08-26T23:35:30.068Z,12.05
2022-08-26T23:37:59.495Z,13.38
2022-08-26T23:40:32.481Z,13.38
2022-08-26T23:43:05.227Z,13.32
2022-08-26T23:45:34.877Z,12.45
2022-08-26T23:48:04.402Z,12.70
2022-08-26T23:50:51.481Z,12.13
2022-08-26T23:53:22.605Z,12.35
2022-08-26T23:55:53.152Z,12.05
2022-08-26T23:58:21.906Z,12.80
